Coaldale, Canada
Current Conditions -  °F | °C
As of 8:00 AM on Friday 19 Dec 2014 (Local Time) from CYQL Reporting Station
Broken Clouds Broken Clouds  
Wind Chill: 18°   Ceiling: 16000
Heat Index: 30°   Visibility: 30mi
Dew Point: 27°   Wind: 18mph
Humidity: 86%   Direction: 200°SSW
Pressure: 29.75"   Gusts: NA
Location:  49.73°N, 112.6°W
Report Text: CYQL 191500Z 20016KT 30SM FEW120 BKN160 M01/M03 A2975 RMK AC1AC5 SLP110
Loading
Personal Weather Stations






























Interactive Weather Map New forecast layout! Learn more

10-Day Weather Forecast

Advertisements
Track Severe Weather on mobile